Time;durP1;ratioP1;P1;durP2;ratioP2;P2;SDS_P1;SDS_P2;PMS_P1;PMS_P2;Temp;Humidity;BMP_temperature;BMP_pressure;BME280_temperature;BME280_humidity;BME280_pressure;Samples;Min_cycle;Max_cycle;Signal;HPM_P1;HPM_P2
2022/03/16 00:01:57;;;;;;;;;13.00;11.67;;;;;14.43;65.63;101747.03;4985324;28;45333;-86
2022/03/16 00:04:22;;;;;;;;;16.00;13.00;;;;;14.39;65.12;101733.81;4992895;27;45492;-86
2022/03/16 00:06:48;;;;;;;;;17.33;13.33;;;;;14.28;65.33;101710.13;4979674;28;45195;-87
2022/03/16 00:09:13;;;;;;;;;15.00;14.33;;;;;14.10;64.90;101674.28;4989664;28;45548;-87
2022/03/16 00:11:38;;;;;;;;;10.00;10.00;;;;;14.49;65.13;101745.88;4986519;27;45495;-87
2022/03/16 00:14:04;;;;;;;;;9.67;9.67;;;;;14.62;65.29;101763.22;4983268;28;45194;-87
2022/03/16 00:16:29;;;;;;;;;13.00;13.00;;;;;14.42;64.92;101725.63;4993280;27;45535;-86
2022/03/16 00:18:54;;;;;;;;;12.00;10.67;;;;;14.49;65.23;101740.50;4979925;28;45662;-87
2022/03/16 00:21:20;;;;;;;;;13.33;10.33;;;;;14.51;64.70;101744.84;4982409;28;45375;-87
2022/03/16 00:23:45;;;;;;;;;10.33;9.33;;;;;14.52;64.91;101746.63;4985846;27;46614;-87
2022/03/16 00:26:11;;;;;;;;;13.00;12.67;;;;;14.35;65.23;101725.91;4976060;28;46434;-87
2022/03/16 00:28:36;;;;;;;;;10.00;9.67;;;;;14.51;65.04;101754.72;4977104;28;54013;-87
2022/03/16 00:31:04;;;;;;;;;9.67;8.33;;;;;14.60;65.20;101766.91;4994585;27;45459;-87
2022/03/16 00:33:30;;;;;;;;;16.33;12.00;;;;;13.72;65.30;101618.72;4996507;27;45250;-86
2022/03/16 00:35:56;;;;;;;;;8.67;8.33;;;;;14.13;65.50;101699.13;4996642;27;45280;-88
2022/03/16 00:38:21;;;;;;;;;16.67;14.00;;;;;14.28;64.99;101712.81;4996317;27;46052;-87
2022/03/16 00:40:46;;;;;;;;;12.67;9.67;;;;;14.42;65.03;101726.53;5000506;27;45218;-87
2022/03/16 00:43:13;;;;;;;;;15.33;13.33;;;;;14.60;65.19;101754.34;5099921;27;45491;-87
2022/03/16 00:45:38;;;;;;;;;13.67;12.00;;;;;14.17;65.24;101688.31;5033129;27;45446;-88
2022/03/16 00:48:04;;;;;;;;;12.67;9.33;;;;;14.49;65.11;101741.41;4976514;28;46761;-87
2022/03/16 00:50:30;;;;;;;;;10.00;9.67;;;;;14.61;64.85;101757.91;4975410;28;45841;-87
2022/03/16 00:52:55;;;;;;;;;18.33;14.00;;;;;14.30;65.32;101697.53;4976362;28;45424;-87
2022/03/16 00:55:21;;;;;;;;;12.67;10.33;;;;;14.36;65.22;101706.19;4990969;28;45504;-88
2022/03/16 00:57:46;;;;;;;;;12.00;12.00;;;;;14.51;64.75;101727.91;4995705;28;45434;-87
2022/03/16 01:00:12;;;;;;;;;10.33;9.67;;;;;14.51;65.15;101725.22;4995579;27;54791;-87
2022/03/16 01:02:37;;;;;;;;;14.00;13.33;;;;;14.56;64.86;101736.63;4986594;28;45331;-87
2022/03/16 01:05:04;;;;;;;;;14.33;12.00;;;;;14.49;65.02;101722.63;4976621;28;45305;-87
2022/03/16 01:07:29;;;;;;;;;10.00;10.00;;;;;14.57;64.83;101738.41;4976570;28;45385;-87
2022/03/16 01:09:55;;;;;;;;;12.00;12.00;;;;;14.55;64.73;101732.22;4976085;28;45345;-87
2022/03/16 01:12:20;;;;;;;;;8.33;8.33;;;;;14.55;64.78;101726.88;4976822;28;45372;-87
2022/03/16 01:14:46;;;;;;;;;13.00;10.67;;;;;14.01;65.04;101634.47;4992572;27;45696;-87
2022/03/16 01:17:11;;;;;;;;;10.67;10.67;;;;;14.35;64.79;101698.19;4976028;28;45469;-87
2022/03/16 01:19:37;;;;;;;;;12.67;10.67;;;;;14.36;64.73;101699.97;4976176;28;45404;-87
2022/03/16 01:22:04;;;;;;;;;11.67;10.33;;;;;14.51;65.08;101717.16;4976043;28;45449;-87
2022/03/16 01:24:29;;;;;;;;;8.00;8.00;;;;;14.48;64.84;101710.13;4976696;28;45564;-87
2022/03/16 01:26:55;;;;;;;;;11.33;10.67;;;;;14.07;64.86;101647.59;4980299;27;46706;-87
2022/03/16 01:29:20;;;;;;;;;12.67;10.33;;;;;14.05;65.05;101636.09;4981134;28;45897;-87
2022/03/16 01:31:45;;;;;;;;;14.33;10.67;;;;;13.90;64.91;101621.53;4992003;27;45309;-87
2022/03/16 01:34:11;;;;;;;;;13.67;10.33;;;;;14.24;65.05;101671.00;4979988;28;45376;-87
2022/03/16 01:36:37;;;;;;;;;12.00;9.67;;;;;14.03;65.09;101633.47;4995245;28;45511;-87
2022/03/16 01:39:04;;;;;;;;;9.67;9.67;;;;;13.88;65.07;101608.22;4994547;27;45373;-87
2022/03/16 01:41:29;;;;;;;;;10.67;9.67;;;;;13.62;64.70;101557.56;4993353;28;45437;-87
2022/03/16 01:43:56;;;;;;;;;8.33;8.33;;;;;14.39;64.82;101694.44;4977603;28;45714;-88
2022/03/16 01:46:21;;;;;;;;;9.67;9.67;;;;;13.89;64.51;101620.66;4990939;28;45955;-87
2022/03/16 01:48:47;;;;;;;;;10.00;10.00;;;;;13.54;64.74;101568.63;4983701;28;45310;-87
2022/03/16 01:51:13;;;;;;;;;12.67;12.00;;;;;13.69;64.84;101600.09;4983936;27;45401;-87
2022/03/16 01:53:40;;;;;;;;;9.67;9.67;;;;;14.23;64.82;101694.25;4977153;28;45482;-87
2022/03/16 01:56:06;;;;;;;;;14.00;12.00;;;;;14.08;65.07;101673.47;4991329;27;45373;-87
2022/03/16 01:58:31;;;;;;;;;8.67;7.67;;;;;14.15;65.27;101688.34;4988172;28;45607;-87
2022/03/16 02:00:57;;;;;;;;;10.67;9.33;;;;;13.87;65.01;101643.97;4993556;27;45498;-87
2022/03/16 02:03:22;;;;;;;;;9.67;9.67;;;;;14.20;65.26;101699.75;4983021;28;45585;-87
2022/03/16 02:05:47;;;;;;;;;10.33;9.00;;;;;13.89;65.04;101650.16;4991047;28;45466;-87
2022/03/16 02:08:13;;;;;;;;;10.33;10.33;;;;;13.93;65.08;101665.16;4975813;28;45419;-87
2022/03/16 02:10:40;;;;;;;;;11.00;9.67;;;;;13.94;65.16;101656.19;4982034;28;45416;-86
2022/03/16 02:13:08;;;;;;;;;10.00;8.33;;;;;13.96;65.17;101658.81;4985355;28;45599;-86
2022/03/16 02:15:34;;;;;;;;;10.67;10.33;;;;;14.11;64.72;101692.97;4981227;28;45528;-87
2022/03/16 02:17:59;;;;;;;;;9.33;9.33;;;;;14.18;64.91;101709.66;4983396;28;45441;-87
2022/03/16 02:20:27;;;;;;;;;11.67;8.67;;;;;14.17;64.71;101691.84;4987145;28;45376;-87
2022/03/16 02:22:56;;;;;;;;;13.33;12.00;;;;;14.18;64.64;101695.41;4990373;27;45757;-88
2022/03/16 02:25:22;;;;;;;;;12.00;12.00;;;;;13.89;65.02;101647.47;4981524;28;47549;-87
2022/03/16 02:27:48;;;;;;;;;11.00;11.00;;;;;13.71;64.97;101614.28;4981433;28;45556;-87
2022/03/16 02:30:13;;;;;;;;;13.33;13.33;;;;;13.88;64.85;101643.06;4983796;28;45654;-87
2022/03/16 02:32:38;;;;;;;;;13.00;11.33;;;;;13.73;64.89;101612.41;4982299;28;45608;-87
2022/03/16 02:35:04;;;;;;;;;13.00;12.00;;;;;14.11;64.72;101682.25;4982178;28;47290;-87
2022/03/16 02:37:30;;;;;;;;;17.67;13.67;;;;;13.90;64.96;101645.66;4989003;28;45428;-87
2022/03/16 02:39:55;;;;;;;;;14.33;10.67;;;;;13.72;65.18;101628.56;4978672;28;45543;-87
2022/03/16 02:42:24;;;;;;;;;15.67;13.33;;;;;13.88;64.95;101642.16;4985999;27;45640;-87
2022/03/16 02:44:49;;;;;;;;;12.33;12.33;;;;;14.02;65.05;101671.91;4980783;28;45441;-87
2022/03/16 02:47:15;;;;;;;;;10.33;10.33;;;;;13.93;65.18;101673.22;4983529;27;45397;-87
2022/03/16 02:49:40;;;;;;;;;14.33;14.33;;;;;13.75;65.35;101647.19;4988492;28;45400;-87
2022/03/16 02:52:09;;;;;;;;;11.33;10.33;;;;;13.78;65.57;101649.72;4977423;28;45409;-88
2022/03/16 02:54:34;;;;;;;;;12.67;12.00;;;;;13.25;65.48;101564.44;4988843;28;48200;-87
2022/03/16 02:57:00;;;;;;;;;17.33;14.33;;;;;13.67;65.47;101630.56;4982220;28;45247;-87
2022/03/16 02:59:26;;;;;;;;;10.67;9.33;;;;;13.52;65.46;101613.34;4994238;28;45271;-87
2022/03/16 03:01:51;;;;;;;;;11.67;10.67;;;;;13.88;65.58;101668.97;4985434;28;45743;-87
2022/03/16 03:04:17;;;;;;;;;14.33;11.67;;;;;13.88;65.68;101664.50;4983443;28;48207;-87
2022/03/16 03:06:42;;;;;;;;;15.00;13.33;;;;;13.87;65.50;101673.47;4982506;27;46340;-87
2022/03/16 03:09:07;;;;;;;;;18.67;15.33;;;;;13.83;65.79;101669.16;4982284;28;45803;-86
2022/03/16 03:11:32;;;;;;;;;17.67;17.67;;;;;13.72;65.45;101658.06;4981668;28;45416;-87
2022/03/16 03:13:58;;;;;;;;;14.67;13.67;;;;;13.77;65.71;101666.75;4988688;27;45439;-86
2022/03/16 03:16:23;;;;;;;;;15.00;12.33;;;;;13.83;65.82;101681.69;4992620;27;45455;-87
2022/03/16 03:18:48;;;;;;;;;13.67;13.67;;;;;13.83;66.03;101676.34;4993810;27;45298;-88
2022/03/16 03:21:14;;;;;;;;;15.00;15.00;;;;;13.55;65.88;101631.94;4993992;27;45382;-87
2022/03/16 03:23:39;;;;;;;;;13.67;13.67;;;;;13.29;65.82;101591.06;4991881;27;45454;-87
2022/03/16 03:26:05;;;;;;;;;13.00;13.00;;;;;13.55;66.01;101631.09;4982923;28;45771;-87
2022/03/16 03:28:30;;;;;;;;;14.33;14.33;;;;;13.71;65.55;101654.47;5004311;27;45383;-87
2022/03/16 03:30:55;;;;;;;;;22.33;15.33;;;;;13.41;66.09;101595.03;4994285;27;45385;-86
2022/03/16 03:33:21;;;;;;;;;14.67;14.33;;;;;13.84;66.03;101662.88;4973640;28;45563;-87
2022/03/16 03:35:48;;;;;;;;;19.67;16.33;;;;;13.38;65.80;101583.59;4986299;28;45356;-87
2022/03/16 03:38:14;;;;;;;;;15.00;12.00;;;;;13.48;65.84;101609.03;4977333;27;45475;-87
2022/03/16 03:40:39;;;;;;;;;14.00;12.67;;;;;13.71;65.99;101657.16;4990580;28;45573;-87
2022/03/16 03:43:04;;;;;;;;;18.00;18.00;;;;;13.48;66.21;101617.94;4983571;28;46570;-87
2022/03/16 03:45:31;;;;;;;;;15.67;15.67;;;;;13.37;66.02;101597.91;4986530;27;45310;-87
2022/03/16 03:47:56;;;;;;;;;15.00;14.00;;;;;13.45;66.11;101622.56;4990995;28;45353;-87
2022/03/16 03:50:22;;;;;;;;;14.67;12.67;;;;;13.23;66.16;101579.72;4994738;27;45630;-87
2022/03/16 03:52:47;;;;;;;;;18.00;12.33;;;;;13.81;66.01;101679.06;4996662;27;45835;-87
2022/03/16 03:55:12;;;;;;;;;12.33;12.33;;;;;13.83;66.02;101671.84;4995356;28;55075;-88
2022/03/16 03:57:38;;;;;;;;;16.00;14.00;;;;;13.57;66.16;101634.56;4997019;27;45259;-87
2022/03/16 04:00:04;;;;;;;;;17.67;15.00;;;;;13.74;65.95;101658.81;4997317;27;45574;-87
2022/03/16 04:02:29;;;;;;;;;17.33;15.00;;;;;13.44;66.18;101608.31;4988172;27;46328;-87
2022/03/16 04:04:55;;;;;;;;;8.33;6.33;;;;;13.74;66.09;101650.78;4984038;27;45378;-87
2022/03/16 04:07:20;;;;;;;;;19.00;13.67;;;;;13.39;66.14;101588.91;4996056;28;45487;-87
2022/03/16 04:09:48;;;;;;;;;16.00;16.00;;;;;13.80;66.07;101660.41;4992889;27;45521;-87
2022/03/16 04:12:14;;;;;;;;;18.67;14.33;;;;;13.78;66.44;101663.13;4983156;28;46931;-87
2022/03/16 04:14:39;;;;;;;;;15.67;15.00;;;;;13.76;66.38;101659.63;4985803;27;45391;-87
2022/03/16 04:17:05;;;;;;;;;15.33;15.00;;;;;13.69;66.38;101640.25;4990668;28;45766;-87
2022/03/16 04:19:30;;;;;;;;;19.67;19.33;;;;;13.55;66.23;101615.88;4979900;28;45618;-87
2022/03/16 04:21:55;;;;;;;;;18.00;17.00;;;;;13.09;66.29;101526.75;4994606;27;48420;-87
2022/03/16 04:24:21;;;;;;;;;14.33;12.33;;;;;13.38;66.36;101580.91;4993670;27;54090;-87
2022/03/16 04:26:46;;;;;;;;;14.33;13.33;;;;;13.23;66.51;101561.84;4976548;28;45242;-88
2022/03/16 04:29:11;;;;;;;;;18.00;17.33;;;;;13.48;66.54;101606.34;4977046;28;45495;-87
2022/03/16 04:31:37;;;;;;;;;17.00;14.67;;;;;13.17;66.31;101555.88;4993941;27;45711;-87
2022/03/16 04:34:02;;;;;;;;;18.33;16.67;;;;;13.10;66.56;101541.88;4991293;27;45346;-87
2022/03/16 04:36:29;;;;;;;;;13.33;13.33;;;;;13.51;66.56;101614.28;4983695;28;45443;-87
2022/03/16 04:38:55;;;;;;;;;19.67;18.33;;;;;13.61;66.73;101623.66;4995090;28;45320;-88
2022/03/16 04:41:21;;;;;;;;;14.67;12.33;;;;;13.57;66.87;101616.69;4995760;27;46151;-87
2022/03/16 04:43:46;;;;;;;;;15.00;12.33;;;;;13.61;66.78;101620.97;4995471;27;45475;-87
2022/03/16 04:46:12;;;;;;;;;17.00;17.00;;;;;13.56;66.93;101611.41;4981869;28;45250;-85
2022/03/16 04:48:37;;;;;;;;;18.33;16.67;;;;;13.52;66.96;101608.84;4976442;28;45349;-86
2022/03/16 04:51:03;;;;;;;;;21.00;17.67;;;;;13.47;66.99;101601.94;4975977;28;46439;-85
2022/03/16 04:53:28;;;;;;;;;16.33;16.33;;;;;13.29;67.09;101588.38;4980063;27;45415;-87
2022/03/16 04:55:54;;;;;;;;;13.00;13.00;;;;;13.36;66.86;101601.53;4978238;28;45552;-85
2022/03/16 04:58:19;;;;;;;;;17.00;15.33;;;;;13.24;67.06;101576.97;4988369;28;46434;-84
2022/03/16 05:00:44;;;;;;;;;12.67;12.67;;;;;13.55;66.98;101625.72;4977331;28;45591;-83
2022/03/16 05:03:12;;;;;;;;;16.00;15.67;;;;;13.41;66.96;101607.56;4977638;28;45605;-84
2022/03/16 05:05:37;;;;;;;;;18.33;16.00;;;;;13.51;67.14;101631.22;4980362;27;45641;-85
2022/03/16 05:08:03;;;;;;;;;17.33;12.67;;;;;13.40;67.25;101608.50;4980448;27;45583;-85
2022/03/16 05:10:28;;;;;;;;;19.67;18.00;;;;;13.49;67.02;101611.66;4982910;28;45981;-85
2022/03/16 05:12:54;;;;;;;;;19.33;19.33;;;;;13.53;67.35;101617.75;4986644;27;45340;-84
2022/03/16 05:15:20;;;;;;;;;17.67;15.00;;;;;13.33;67.15;101585.59;4985824;28;45528;-84
2022/03/16 05:17:47;;;;;;;;;22.67;20.33;;;;;13.55;67.13;101615.00;4986453;28;45365;-84
2022/03/16 05:20:13;;;;;;;;;20.00;17.33;;;;;13.30;66.94;101575.88;4976088;28;45993;-83
2022/03/16 05:22:43;;;;;;;;;20.33;15.67;;;;;13.40;66.88;101590.63;4987364;27;45301;-83
2022/03/16 05:25:11;;;;;;;;;22.33;17.67;;;;;13.53;67.01;101620.41;4975748;28;45430;-84
2022/03/16 05:27:36;;;;;;;;;17.00;16.67;;;;;13.50;67.03;101618.75;4986191;28;45250;-85
2022/03/16 05:30:02;;;;;;;;;21.33;14.67;;;;;13.48;67.00;101615.25;4976068;28;46137;-83
2022/03/16 05:32:30;;;;;;;;;19.00;16.67;;;;;13.55;67.32;101639.13;4988815;27;45519;-84
2022/03/16 05:34:55;;;;;;;;;22.67;18.00;;;;;13.28;67.39;101597.34;4991984;27;45368;-84
2022/03/16 05:37:20;;;;;;;;;24.33;20.00;;;;;13.40;67.51;101619.22;4994701;27;45310;-84
2022/03/16 05:39:46;;;;;;;;;22.67;21.00;;;;;13.34;67.60;101616.78;4989272;28;45228;-82
2022/03/16 05:42:11;;;;;;;;;19.00;17.33;;;;;13.29;67.50;101606.25;4991348;27;45460;-82
2022/03/16 05:44:36;;;;;;;;;22.33;18.00;;;;;13.30;67.52;101610.69;4994653;28;45401;-82
2022/03/16 05:47:02;;;;;;;;;20.00;18.00;;;;;13.24;67.35;101606.41;5001522;27;45542;-83
2022/03/16 05:49:28;;;;;;;;;21.33;20.67;;;;;13.39;67.69;101637.09;5010694;27;46254;-83
2022/03/16 05:51:54;;;;;;;;;22.00;18.33;;;;;13.13;67.63;101583.69;4987966;27;45563;-83
2022/03/16 05:54:20;;;;;;;;;19.00;17.67;;;;;13.43;67.37;101630.66;4985447;27;45648;-83
2022/03/16 05:56:45;;;;;;;;;25.33;20.33;;;;;13.30;67.77;101608.88;4987160;28;45590;-83
2022/03/16 05:59:10;;;;;;;;;17.33;16.33;;;;;13.47;67.73;101634.94;4991421;27;46614;-83
2022/03/16 06:01:35;;;;;;;;;21.33;17.33;;;;;13.17;67.70;101594.22;4988587;28;45388;-83
2022/03/16 06:04:01;;;;;;;;;21.00;18.00;;;;;13.35;67.64;101629.25;4981294;28;45519;-85
2022/03/16 06:06:29;;;;;;;;;17.33;15.00;;;;;13.07;67.70;101574.13;4982262;27;45452;-85
2022/03/16 06:08:54;;;;;;;;;24.67;19.33;;;;;13.42;67.98;101630.72;4983477;27;46218;-86
2022/03/16 06:11:20;;;;;;;;;21.33;18.33;;;;;13.47;67.77;101639.44;4984819;28;45574;-84
2022/03/16 06:13:45;;;;;;;;;20.67;16.67;;;;;13.53;67.66;101652.56;4987009;28;45729;-83
2022/03/16 06:16:10;;;;;;;;;19.00;15.67;;;;;13.48;67.59;101643.84;4980465;28;45631;-83
2022/03/16 06:18:36;;;;;;;;;23.00;20.33;;;;;13.51;67.70;101643.75;4979651;28;45513;-83
2022/03/16 06:21:02;;;;;;;;;21.67;20.00;;;;;13.27;67.79;101595.63;4994390;28;45358;-83
2022/03/16 06:23:29;;;;;;;;;20.67;20.67;;;;;13.38;67.58;101610.38;4992004;28;45515;-83
2022/03/16 06:25:54;;;;;;;;;24.00;22.67;;;;;13.32;67.74;101603.44;4990135;28;45425;-84
2022/03/16 06:28:19;;;;;;;;;28.67;23.67;;;;;13.37;67.78;101628.25;4995997;27;46052;-82
2022/03/16 06:30:45;;;;;;;;;25.67;21.67;;;;;13.39;67.71;101638.88;4989679;28;45408;-83
2022/03/16 06:33:10;;;;;;;;;20.67;19.33;;;;;13.46;67.98;101648.41;4979980;28;45708;-83
2022/03/16 06:35:36;;;;;;;;;24.67;23.33;;;;;13.50;67.88;101664.28;4994957;28;45422;-84
2022/03/16 06:38:01;;;;;;;;;19.33;16.33;;;;;13.41;67.55;101650.41;4990259;28;45541;-84
2022/03/16 06:40:26;;;;;;;;;21.67;17.67;;;;;13.25;67.75;101621.56;4981503;28;45429;-81
2022/03/16 06:42:54;;;;;;;;;24.00;20.33;;;;;13.30;67.65;101630.31;4985005;27;45379;-83
2022/03/16 06:45:20;;;;;;;;;9.33;8.33;;;;;13.57;67.82;101672.06;4978656;28;45372;-83
2022/03/16 06:47:46;;;;;;;;;29.00;23.33;;;;;13.54;67.76;101666.84;4983518;28;45506;-84
2022/03/16 06:50:12;;;;;;;;;15.67;15.67;;;;;13.38;67.52;101635.34;4983864;28;45470;-83
2022/03/16 06:52:39;;;;;;;;;21.00;21.00;;;;;13.59;67.26;101673.75;4986405;27;45523;-86
2022/03/16 06:55:05;;;;;;;;;18.67;16.33;;;;;13.68;67.55;101680.53;4978215;28;45504;-84
2022/03/16 06:57:31;;;;;;;;;16.67;16.67;;;;;13.69;67.39;101677.78;4982057;27;46354;-82
2022/03/16 06:59:56;;;;;;;;;29.33;24.00;;;;;13.70;67.01;101676.84;4979187;28;45513;-80
2022/03/16 07:02:21;;;;;;;;;24.33;19.33;;;;;13.51;67.09;101651.78;4976860;28;49306;-82
2022/03/16 07:04:47;;;;;;;;;17.67;15.67;;;;;13.68;67.10;101669.81;5005027;27;46934;-82
2022/03/16 07:07:12;;;;;;;;;21.33;21.33;;;;;13.63;67.33;101655.75;4986357;27;45971;-81
2022/03/16 07:09:37;;;;;;;;;59.50;47.75;;;;;13.78;66.98;101684.56;4978765;28;45412;-83
2022/03/16 07:12:04;;;;;;;;;21.67;20.00;;;;;13.79;67.06;101685.44;4978902;27;45308;-86
2022/03/16 07:14:32;;;;;;;;;18.33;18.00;;;;;13.65;66.78;101657.44;4975497;28;45623;-85
2022/03/16 07:16:58;;;;;;;;;23.33;19.67;;;;;13.70;66.75;101658.09;4980211;28;45580;-85
2022/03/16 07:19:24;;;;;;;;;20.67;18.33;;;;;13.80;66.55;101660.41;4984559;28;45384;-84
2022/03/16 07:21:49;;;;;;;;;19.00;18.33;;;;;13.60;66.55;101629.06;4980744;28;45376;-84
2022/03/16 07:24:15;;;;;;;;;23.67;18.00;;;;;13.65;66.59;101625.28;4977736;28;45312;-86
2022/03/16 07:26:40;;;;;;;;;24.33;20.67;;;;;13.93;66.28;101665.16;4977020;28;45531;-85
2022/03/16 07:29:06;;;;;;;;;26.67;23.67;;;;;13.95;66.37;101673.13;4977794;28;45404;-83
2022/03/16 07:31:32;;;;;;;;;21.67;21.67;;;;;13.83;66.25;101645.03;4996323;27;45383;-83
2022/03/16 07:33:57;;;;;;;;;22.67;21.67;;;;;13.74;65.95;101632.03;4983207;27;45420;-83
2022/03/16 07:36:23;;;;;;;;;20.00;19.67;;;;;14.01;66.25;101682.72;4985234;27;45301;-82
2022/03/16 07:38:48;;;;;;;;;20.67;18.33;;;;;13.92;65.97;101662.53;4992871;27;45333;-81
2022/03/16 07:41:15;;;;;;;;;16.00;14.67;;;;;13.94;65.66;101664.22;5000895;27;46073;-84
2022/03/16 07:43:41;;;;;;;;;18.67;17.33;;;;;14.11;65.97;101678.69;5001567;27;45643;-84
2022/03/16 07:46:06;;;;;;;;;23.33;21.00;;;;;13.78;65.73;101609.53;5006864;28;46195;-83
2022/03/16 07:48:34;;;;;;;;;20.67;20.00;;;;;14.00;65.66;101649.69;5016508;28;45227;-81
2022/03/16 07:50:59;;;;;;;;;27.00;20.67;;;;;14.09;65.66;101665.38;5015246;28;45423;-81
2022/03/16 07:53:25;;;;;;;;;20.00;18.33;;;;;14.17;65.31;101669.53;5060950;27;46354;-83
2022/03/16 07:55:55;;;;;;;;;20.00;16.67;;;;;14.02;65.54;101650.47;5004679;27;45450;-84
2022/03/16 07:58:20;;;;;;;;;21.00;18.00;;;;;14.05;65.38;101655.72;5016499;28;45415;-86
2022/03/16 08:00:46;;;;;;;;;24.67;21.33;;;;;14.15;65.20;101677.63;5009519;27;45469;-84
2022/03/16 08:03:12;;;;;;;;;22.00;20.33;;;;;13.93;65.23;101632.16;4999816;27;45368;-84
2022/03/16 08:05:39;;;;;;;;;20.67;16.33;;;;;14.25;66.75;101664.69;5013855;27;46429;-80
2022/03/16 08:08:04;;;;;;;;;21.33;19.33;;;;;14.48;66.21;101672.56;4992343;27;45393;-80
2022/03/16 08:10:30;;;;;;;;;19.67;16.33;;;;;14.60;65.33;101673.00;4991910;27;45496;-81
2022/03/16 08:12:55;;;;;;;;;21.67;18.67;;;;;14.68;66.09;101660.97;5017623;27;45388;-80
2022/03/16 08:15:20;;;;;;;;;19.67;17.00;;;;;14.90;65.42;101678.75;5027619;27;45985;-82
2022/03/16 08:17:46;;;;;;;;;21.67;21.00;;;;;14.91;64.25;101659.91;5018674;27;45497;-79
2022/03/16 08:20:12;;;;;;;;;24.00;19.67;;;;;14.81;64.00;101625.50;4990121;27;45412;-79
2022/03/16 08:22:37;;;;;;;;;18.67;14.00;;;;;15.05;63.76;101667.28;4994686;27;45551;-85
2022/03/16 08:25:06;;;;;;;;;22.33;20.00;;;;;15.13;63.32;101662.44;4987673;27;45581;-81
2022/03/16 08:27:32;;;;;;;;;21.33;18.67;;;;;15.23;63.92;101667.38;4992435;28;45508;-80
2022/03/16 08:29:57;;;;;;;;;23.00;20.67;;;;;15.33;62.88;101660.59;4991690;27;45543;-81
2022/03/16 08:32:23;;;;;;;;;20.00;20.00;;;;;15.14;62.02;101620.34;4985475;27;45478;-82
2022/03/16 08:34:49;;;;;;;;;25.67;20.67;;;;;15.46;62.41;101659.03;4984999;28;46163;-81
2022/03/16 08:37:14;;;;;;;;;17.33;16.67;;;;;15.54;62.13;101666.72;4990270;27;45532;-81
2022/03/16 08:39:41;;;;;;;;;22.33;20.67;;;;;15.58;61.52;101669.19;4985512;27;45480;-81
2022/03/16 08:42:08;;;;;;;;;22.00;18.00;;;;;15.59;61.12;101675.41;4990444;28;45422;-81
2022/03/16 08:44:35;;;;;;;;;22.00;17.67;;;;;15.59;61.21;101667.34;4988962;27;45406;-81
2022/03/16 08:47:00;;;;;;;;;12.67;11.67;;;;;15.58;60.96;101671.00;4987182;28;45517;-81
2022/03/16 08:49:26;;;;;;;;;48.75;35.75;;;;;15.56;60.42;101678.25;4997842;28;45425;-80
2022/03/16 08:51:51;;;;;;;;;42.00;35.67;;;;;15.53;60.82;101686.50;4987470;27;45598;-80
2022/03/16 08:54:18;;;;;;;;;26.33;22.33;;;;;15.36;60.65;101681.94;4992084;28;49230;-80
2022/03/16 08:56:43;;;;;;;;;46.50;38.50;;;;;14.59;61.99;101666.78;4993321;28;45435;-81
2022/03/16 08:59:09;;;;;;;;;39.00;32.25;;;;;14.33;63.32;101673.28;4998387;28;45485;-83
2022/03/16 09:01:35;;;;;;;;;23.00;23.00;;;;;14.45;62.99;101677.22;4998653;28;45478;-82
2022/03/16 09:04:01;;;;;;;;;26.33;22.00;;;;;14.63;62.98;101695.19;4994552;27;46058;-80
2022/03/16 09:06:27;;;;;;;;;24.67;22.67;;;;;14.59;62.56;101682.00;4983039;28;45520;-81
2022/03/16 09:08:53;;;;;;;;;27.67;22.33;;;;;14.64;62.40;101694.25;5002649;28;45425;-81
2022/03/16 09:11:18;;;;;;;;;33.67;29.67;;;;;14.82;62.35;101708.66;5002439;28;45408;-81
2022/03/16 09:13:44;;;;;;;;;48.25;38.25;;;;;14.88;62.62;101711.03;4999356;28;46071;-81
2022/03/16 09:16:09;;;;;;;;;59.75;49.00;;;;;14.93;62.32;101708.13;4992863;27;45468;-81
2022/03/16 09:18:34;;;;;;;;;35.67;27.67;;;;;15.00;62.86;101696.16;4989030;27;53204;-81
2022/03/16 09:21:01;;;;;;;;;26.00;24.00;;;;;15.12;62.08;101700.09;4997418;27;45427;-81
2022/03/16 09:23:31;;;;;;;;;26.00;25.00;;;;;15.02;62.04;101666.56;4996917;28;45316;-82
2022/03/16 09:25:59;;;;;;;;;26.00;23.67;;;;;15.08;61.48;101664.47;4998080;28;45488;-82
2022/03/16 09:28:25;;;;;;;;;36.00;30.67;;;;;15.36;61.28;101698.06;4995886;28;45397;-81
2022/03/16 09:30:51;;;;;;;;;18.33;17.33;;;;;15.32;61.21;101688.41;4988576;27;45246;-81
2022/03/16 09:33:17;;;;;;;;;35.67;29.00;;;;;15.51;60.95;101704.50;4993967;27;46120;-81
2022/03/16 09:35:44;;;;;;;;;27.67;21.00;;;;;15.29;60.66;101667.94;4987066;28;45472;-81
2022/03/16 09:38:11;;;;;;;;;26.67;23.33;;;;;15.35;60.40;101678.38;4992370;27;45388;-81
2022/03/16 09:40:36;;;;;;;;;29.00;27.00;;;;;15.52;61.19;101684.72;4992719;28;46399;-81
2022/03/16 09:43:07;;;;;;;;;27.33;23.00;;;;;15.65;60.66;101695.75;4991725;28;46226;-82
2022/03/16 09:45:51;;;;;;;;;23.33;22.67;;;;;15.47;59.99;101654.53;4998234;28;46037;-80
2022/03/16 09:48:17;;;;;;;;;23.00;18.67;;;;;15.85;59.98;101697.47;4991591;27;45258;-81
2022/03/16 09:50:43;;;;;;;;;24.33;22.33;;;;;15.93;59.49;101698.81;4998841;28;45871;-82
2022/03/16 09:53:10;;;;;;;;;24.33;22.67;;;;;16.00;59.49;101688.63;4997140;28;46346;-81
2022/03/16 09:55:35;;;;;;;;;28.33;21.67;;;;;16.03;59.14;101688.47;4994150;27;45572;-82
2022/03/16 09:58:00;;;;;;;;;24.00;21.67;;;;;16.00;58.59;101664.44;4987356;28;45440;-85
2022/03/16 10:00:26;;;;;;;;;44.00;34.00;;;;;16.00;59.00;101651.84;4988055;28;45700;-84
2022/03/16 10:02:52;;;;;;;;;27.00;25.67;;;;;16.12;58.53;101665.59;4992231;28;45462;-84
2022/03/16 10:05:19;;;;;;;;;23.00;19.00;;;;;16.19;58.09;101677.78;4997062;28;45416;-84
2022/03/16 10:07:46;;;;;;;;;22.00;20.00;;;;;16.20;58.56;101677.72;4989038;28;45542;-84
2022/03/16 10:13:13;;;;;;;;;25.00;20.33;;;;;15.99;57.96;101641.16;4993458;28;45531;-84
2022/03/16 10:15:38;;;;;;;;;28.00;23.67;;;;;16.17;58.39;101672.47;4993793;27;45570;-83
2022/03/16 10:18:04;;;;;;;;;23.67;23.33;;;;;16.21;57.77;101678.56;4983373;28;45551;-84
2022/03/16 10:20:35;;;;;;;;;23.67;21.00;;;;;16.19;58.01;101667.03;4983965;28;45507;-83
2022/03/16 10:23:20;;;;;;;;;28.67;25.00;;;;;16.05;58.36;101654.28;4991783;28;46591;-84
2022/03/16 10:25:52;;;;;;;;;31.33;24.67;;;;;16.13;57.79;101673.59;4990990;28;45451;-83
2022/03/16 10:28:21;;;;;;;;;30.33;21.33;;;;;16.19;57.83;101670.56;5003610;28;45671;-84
2022/03/16 10:30:52;;;;;;;;;26.67;23.33;;;;;16.21;58.04;101678.56;4998965;28;45408;-84
2022/03/16 10:33:19;;;;;;;;;26.00;25.67;;;;;16.09;57.85;101660.41;4983208;27;46408;-84
2022/03/16 10:36:15;;;;;;;;;29.33;25.33;;;;;16.24;58.06;101673.03;4984760;28;45484;-84
2022/03/16 10:38:46;;;;;;;;;49.00;41.50;;;;;16.14;57.67;101650.25;4998297;28;45388;-84
2022/03/16 10:46:46;;;;;;;;;27.33;25.00;;;;;16.24;57.57;101660.44;4987874;28;45343;-83
2022/03/16 10:49:15;;;;;;;;;26.67;23.33;;;;;16.30;57.75;101661.09;4998602;28;45511;-84
2022/03/16 10:51:43;;;;;;;;;26.33;23.00;;;;;16.05;57.40;101616.66;4989335;27;45325;-83
2022/03/16 10:54:08;;;;;;;;;29.00;23.00;;;;;15.89;57.84;101575.38;4988474;27;46037;-84
2022/03/16 10:56:39;;;;;;;;;23.67;22.67;;;;;16.19;57.33;101616.78;4982113;28;54645;-84
2022/03/16 10:59:06;;;;;;;;;30.00;26.00;;;;;16.24;57.27;101620.09;4977866;28;45534;-84
2022/03/16 11:01:38;;;;;;;;;10.33;5.33;;;;;16.39;57.17;101629.19;4986078;28;45432;-83
2022/03/16 11:04:04;;;;;;;;;27.33;23.33;;;;;16.51;56.96;101633.03;4994776;28;47002;-83
2022/03/16 11:06:30;;;;;;;;;30.67;23.33;;;;;16.51;57.48;101616.88;4991417;27;45435;-83
2022/03/16 11:08:56;;;;;;;;;27.67;26.33;;;;;16.63;56.97;101624.28;4989957;27;45689;-85
2022/03/16 11:14:15;;;;;;;;;29.33;29.00;;;;;16.39;56.27;101572.69;5056722;28;45901;-84
2022/03/16 11:16:41;;;;;;;;;24.67;22.33;;;;;16.48;56.24;101575.78;5056741;28;45787;-84